RFF54 USCG-ULAA
Flight info
| Callsign | RFF54 |
|---|---|
| Flight time | 2h 11m |
| Altitude | 36000 |
| Route | PESAM R482 ALUMA N170 PENUS T762 ADINU |
| Aircraft | T134/M-SDFGHIRWXYZ/C |
Departure
| Time | 2026-05-01 09:42 |
|---|---|
| Airport | Chelyabinsk Shagol Airport (USCG) |
Arrival
| Time | 2026-05-01 11:54 |
|---|---|
| Airport | Talagi Airport (ULAA) |
| Time | Latitude | Longitude | Altitude | Speed | Heading |
|---|---|---|---|---|---|
| 2026-05-01 09:38 | 55.25207 | 61.30773 | 825 ft | 0 kts | 42° |
| 2026-05-01 09:39 | 55.25225 | 61.30828 | 825 ft | 6 kts | 89° |
| 2026-05-01 09:39 | 55.25196 | 61.30910 | 824 ft | 10 kts | 134° |
| 2026-05-01 09:39 | 55.25172 | 61.31039 | 821 ft | 14 kts | 52° |
| 2026-05-01 09:40 | 55.25252 | 61.31171 | 822 ft | 16 kts | 40° |
| 2026-05-01 09:40 | 55.25350 | 61.31240 | 824 ft | 0 kts | 310° |
| 2026-05-01 09:41 | 55.25804 | 61.30378 | 827 ft | 107 kts | 312° |
| 2026-05-01 09:41 | 55.26413 | 61.29217 | 819 ft | 152 kts | 316° |
| 2026-05-01 09:42 | 55.27149 | 61.27728 | 1091 ft | 170 kts | 321° |
| 2026-05-01 09:42 | 55.28247 | 61.26862 | 1371 ft | 187 kts | 355° |
| 2026-05-01 09:42 | 55.30860 | 61.28496 | 2388 ft | 211 kts | 25° |
| 2026-05-01 09:43 | 55.33355 | 61.30808 | 4094 ft | 200 kts | 23° |
| 2026-05-01 09:43 | 55.34575 | 61.31878 | 4836 ft | 196 kts | 25° |
| 2026-05-01 09:43 | 55.35757 | 61.32936 | 5515 ft | 193 kts | 24° |
| 2026-05-01 09:44 | 55.38531 | 61.33585 | 6292 ft | 213 kts | 12° |
| 2026-05-01 09:44 | 55.40026 | 61.34072 | 6658 ft | 226 kts | 11° |
| 2026-05-01 09:44 | 55.41595 | 61.34697 | 7019 ft | 236 kts | 13° |
| 2026-05-01 09:45 | 55.43239 | 61.35346 | 7387 ft | 247 kts | 12° |
| 2026-05-01 09:45 | 55.46685 | 61.36761 | 8212 ft | 264 kts | 13° |
| 2026-05-01 09:45 | 55.48494 | 61.37500 | 8679 ft | 270 kts | 11° |
| 2026-05-01 09:46 | 55.50373 | 61.38108 | 9134 ft | 276 kts | 8° |
| 2026-05-01 09:46 | 55.52276 | 61.38677 | 9629 ft | 281 kts | 11° |
| 2026-05-01 09:46 | 55.54201 | 61.39268 | 10135 ft | 284 kts | 6° |
| 2026-05-01 09:46 | 55.56139 | 61.39874 | 10610 ft | 288 kts | 9° |
| 2026-05-01 09:47 | 55.58113 | 61.40453 | 11087 ft | 291 kts | 8° |
| 2026-05-01 09:47 | 55.60131 | 61.41050 | 11592 ft | 294 kts | 9° |
| 2026-05-01 09:47 | 55.62128 | 61.41653 | 12071 ft | 297 kts | 10° |
| 2026-05-01 09:47 | 55.64180 | 61.42218 | 12544 ft | 300 kts | 4° |
| 2026-05-01 09:48 | 55.66258 | 61.42000 | 13041 ft | 302 kts | 349° |
| 2026-05-01 09:48 | 55.68333 | 61.41317 | 13545 ft | 304 kts | 350° |
| 2026-05-01 09:48 | 55.70390 | 61.40528 | 14073 ft | 306 kts | 341° |
| 2026-05-01 09:48 | 55.72444 | 61.39653 | 14550 ft | 307 kts | 349° |
| 2026-05-01 09:49 | 55.74539 | 61.38830 | 15020 ft | 309 kts | 345° |
| 2026-05-01 09:49 | 55.76613 | 61.37797 | 15450 ft | 312 kts | 345° |
| 2026-05-01 09:49 | 55.78719 | 61.36923 | 15875 ft | 314 kts | 345° |
| 2026-05-01 09:49 | 55.80839 | 61.35975 | 16292 ft | 316 kts | 347° |
| 2026-05-01 09:50 | 55.82986 | 61.35081 | 16708 ft | 318 kts | 343° |
| 2026-05-01 09:50 | 55.85142 | 61.34117 | 17143 ft | 320 kts | 345° |
| 2026-05-01 09:50 | 55.87286 | 61.33188 | 17557 ft | 322 kts | 343° |
| 2026-05-01 09:50 | 55.89474 | 61.32214 | 17996 ft | 322 kts | 342° |
| 2026-05-01 09:51 | 55.91633 | 61.31232 | 18394 ft | 324 kts | 339° |
| 2026-05-01 09:51 | 55.93729 | 61.29824 | 18835 ft | 324 kts | 335° |
| 2026-05-01 09:51 | 55.95861 | 61.28426 | 19204 ft | 329 kts | 338° |
| 2026-05-01 09:51 | 55.98021 | 61.27094 | 19484 ft | 335 kts | 338° |
| 2026-05-01 09:52 | 56.00246 | 61.25680 | 19817 ft | 340 kts | 340° |
| 2026-05-01 09:52 | 56.02475 | 61.24272 | 20070 ft | 346 kts | 338° |
| 2026-05-01 09:52 | 56.04774 | 61.22827 | 20344 ft | 350 kts | 340° |
| 2026-05-01 09:52 | 56.07062 | 61.21404 | 20677 ft | 353 kts | 338° |
| 2026-05-01 09:53 | 56.09389 | 61.19915 | 21025 ft | 357 kts | 337° |
| 2026-05-01 09:53 | 56.11749 | 61.18420 | 21380 ft | 360 kts | 339° |
| 2026-05-01 09:53 | 56.14100 | 61.16935 | 21702 ft | 364 kts | 339° |
| 2026-05-01 09:53 | 56.16508 | 61.15414 | 22066 ft | 367 kts | 339° |
| 2026-05-01 09:54 | 56.18915 | 61.13889 | 22441 ft | 370 kts | 339° |
| 2026-05-01 09:54 | 56.21350 | 61.12344 | 22803 ft | 372 kts | 338° |
| 2026-05-01 09:54 | 56.23784 | 61.10796 | 23176 ft | 375 kts | 339° |
| 2026-05-01 09:54 | 56.26222 | 61.09245 | 23522 ft | 377 kts | 339° |
| 2026-05-01 09:55 | 56.28705 | 61.07663 | 23898 ft | 379 kts | 339° |
| 2026-05-01 09:55 | 56.31186 | 61.06081 | 24291 ft | 381 kts | 338° |
| 2026-05-01 09:55 | 56.33674 | 61.04492 | 24632 ft | 383 kts | 338° |
| 2026-05-01 09:55 | 56.36188 | 61.02858 | 25006 ft | 384 kts | 334° |
| 2026-05-01 09:56 | 56.38349 | 61.00166 | 25357 ft | 374 kts | 305° |
| 2026-05-01 09:56 | 56.39587 | 60.96168 | 25709 ft | 362 kts | 283° |
| 2026-05-01 09:56 | 56.40448 | 60.91923 | 26037 ft | 368 kts | 288° |
| 2026-05-01 09:56 | 56.41445 | 60.87666 | 26365 ft | 372 kts | 288° |
| 2026-05-01 09:57 | 56.42497 | 60.83357 | 26655 ft | 376 kts | 289° |
| 2026-05-01 09:57 | 56.43574 | 60.79025 | 26945 ft | 379 kts | 288° |
| 2026-05-01 09:57 | 56.44659 | 60.74694 | 27298 ft | 382 kts | 289° |
| 2026-05-01 09:57 | 56.45590 | 60.70976 | 27573 ft | 385 kts | 288° |
| 2026-05-01 09:58 | 56.46436 | 60.67591 | 27844 ft | 387 kts | 288° |
| 2026-05-01 09:58 | 56.47540 | 60.63170 | 28166 ft | 389 kts | 288° |
| 2026-05-01 09:58 | 56.48654 | 60.58704 | 28505 ft | 391 kts | 288° |
| 2026-05-01 09:59 | 56.49774 | 60.54217 | 28833 ft | 391 kts | 288° |
| 2026-05-01 09:59 | 56.50811 | 60.49729 | 29150 ft | 388 kts | 285° |
| 2026-05-01 09:59 | 56.51832 | 60.45181 | 29440 ft | 389 kts | 286° |
| 2026-05-01 09:59 | 56.52856 | 60.40658 | 29753 ft | 389 kts | 286° |
| 2026-05-01 10:00 | 56.53935 | 60.36210 | 30032 ft | 391 kts | 288° |
| 2026-05-01 10:00 | 56.55063 | 60.31678 | 30308 ft | 391 kts | 287° |
| 2026-05-01 10:00 | 56.56171 | 60.27178 | 30587 ft | 391 kts | 284° |
| 2026-05-01 10:00 | 56.57277 | 60.22734 | 30877 ft | 391 kts | 285° |
| 2026-05-01 10:01 | 56.58374 | 60.18231 | 31088 ft | 390 kts | 284° |
| 2026-05-01 10:01 | 56.59467 | 60.13721 | 31336 ft | 390 kts | 286° |
| 2026-05-01 10:01 | 56.60551 | 60.09228 | 31543 ft | 390 kts | 285° |
| 2026-05-01 10:01 | 56.61665 | 60.04720 | 31774 ft | 391 kts | 287° |
| 2026-05-01 10:02 | 56.62745 | 60.00225 | 31978 ft | 390 kts | 287° |
| 2026-05-01 10:02 | 56.63817 | 59.95771 | 32199 ft | 390 kts | 286° |
| 2026-05-01 10:02 | 56.64923 | 59.91236 | 32384 ft | 390 kts | 286° |
| 2026-05-01 10:02 | 56.65983 | 59.86775 | 32535 ft | 389 kts | 285° |
| 2026-05-01 10:03 | 56.67059 | 59.82265 | 32735 ft | 389 kts | 285° |
| 2026-05-01 10:03 | 56.68127 | 59.77768 | 32927 ft | 389 kts | 285° |
| 2026-05-01 10:03 | 56.69200 | 59.73253 | 33068 ft | 389 kts | 285° |
| 2026-05-01 10:03 | 56.70267 | 59.68747 | 33216 ft | 389 kts | 285° |
| 2026-05-01 10:04 | 56.71337 | 59.64227 | 33377 ft | 389 kts | 285° |
| 2026-05-01 10:04 | 56.72400 | 59.59766 | 33507 ft | 389 kts | 285° |
| 2026-05-01 10:04 | 56.73467 | 59.55210 | 33677 ft | 389 kts | 285° |
| 2026-05-01 10:04 | 56.74523 | 59.50719 | 33819 ft | 389 kts | 285° |
| 2026-05-01 10:05 | 56.76657 | 59.41605 | 33900 ft | 395 kts | 286° |
| 2026-05-01 10:05 | 56.78812 | 59.32350 | 33923 ft | 407 kts | 285° |
| 2026-05-01 10:06 | 56.81037 | 59.22755 | 33944 ft | 417 kts | 285° |
| 2026-05-01 10:06 | 56.83239 | 59.13217 | 33896 ft | 425 kts | 285° |
| 2026-05-01 10:07 | 56.85672 | 59.03706 | 33931 ft | 444 kts | 303° |
| 2026-05-01 10:07 | 56.89782 | 58.95578 | 33926 ft | 453 kts | 306° |
| 2026-05-01 10:08 | 56.95980 | 58.82475 | 33967 ft | 462 kts | 305° |
| 2026-05-01 10:09 | 57.00177 | 58.73451 | 33901 ft | 468 kts | 305° |
| 2026-05-01 10:09 | 57.04423 | 58.64291 | 33956 ft | 472 kts | 305° |
| 2026-05-01 10:10 | 57.08666 | 58.55099 | 33925 ft | 475 kts | 305° |
| 2026-05-01 10:10 | 57.15084 | 58.41131 | 33925 ft | 479 kts | 305° |
| 2026-05-01 10:11 | 57.19392 | 58.31707 | 33916 ft | 481 kts | 304° |
| 2026-05-01 10:11 | 57.23667 | 58.22325 | 33934 ft | 481 kts | 304° |
| 2026-05-01 10:12 | 57.27948 | 58.12916 | 33939 ft | 482 kts | 304° |
| 2026-05-01 10:13 | 57.34374 | 57.98684 | 33937 ft | 482 kts | 304° |
| 2026-05-01 10:13 | 57.38636 | 57.89208 | 33943 ft | 480 kts | 304° |
| 2026-05-01 10:14 | 57.45009 | 57.74972 | 33943 ft | 479 kts | 304° |
| 2026-05-01 10:14 | 57.49226 | 57.65353 | 33942 ft | 476 kts | 298° |
| 2026-05-01 10:15 | 57.52188 | 57.54592 | 33981 ft | 468 kts | 291° |
| 2026-05-01 10:15 | 57.55189 | 57.43875 | 33975 ft | 469 kts | 292° |
| 2026-05-01 10:16 | 57.58125 | 57.33051 | 33970 ft | 467 kts | 289° |
| 2026-05-01 10:17 | 57.62415 | 57.16838 | 33977 ft | 467 kts | 290° |
| 2026-05-01 10:17 | 57.66711 | 57.00539 | 33979 ft | 467 kts | 290° |
| 2026-05-01 10:18 | 57.70984 | 56.84213 | 33996 ft | 466 kts | 290° |
| 2026-05-01 10:19 | 57.73814 | 56.73336 | 33983 ft | 466 kts | 290° |
| 2026-05-01 10:19 | 57.76627 | 56.62472 | 34006 ft | 465 kts | 290° |
| 2026-05-01 10:20 | 57.80832 | 56.46129 | 34036 ft | 463 kts | 290° |
| 2026-05-01 10:20 | 57.83607 | 56.35283 | 34030 ft | 462 kts | 291° |
| 2026-05-01 10:21 | 57.87736 | 56.19039 | 34038 ft | 461 kts | 290° |
| 2026-05-01 10:22 | 57.91845 | 56.02761 | 34024 ft | 460 kts | 290° |
| 2026-05-01 10:23 | 57.97172 | 55.87619 | 34028 ft | 465 kts | 300° |
| 2026-05-01 10:23 | 58.02528 | 55.72404 | 34035 ft | 465 kts | 299° |
| 2026-05-01 10:24 | 58.09594 | 55.52103 | 34046 ft | 464 kts | 299° |
| 2026-05-01 10:25 | 58.16642 | 55.31687 | 34037 ft | 464 kts | 298° |
| 2026-05-01 10:26 | 58.20135 | 55.21502 | 34035 ft | 464 kts | 298° |
| 2026-05-01 10:27 | 58.27111 | 55.01037 | 34049 ft | 462 kts | 298° |
| 2026-05-01 10:28 | 58.32324 | 54.85691 | 34044 ft | 464 kts | 302° |
| 2026-05-01 10:28 | 58.39314 | 54.72800 | 34056 ft | 468 kts | 312° |
| 2026-05-01 10:29 | 58.46224 | 54.59821 | 34062 ft | 467 kts | 312° |
| 2026-05-01 10:30 | 58.55434 | 54.42377 | 34070 ft | 467 kts | 312° |
| 2026-05-01 10:31 | 58.64630 | 54.24823 | 34048 ft | 467 kts | 311° |
| 2026-05-01 10:32 | 58.71483 | 54.11651 | 34040 ft | 465 kts | 311° |
| 2026-05-01 10:33 | 58.80567 | 53.94073 | 34059 ft | 464 kts | 311° |
| 2026-05-01 10:34 | 58.87519 | 53.81302 | 34045 ft | 468 kts | 329° |
| 2026-05-01 10:34 | 58.93361 | 53.75903 | 34055 ft | 469 kts | 331° |
| 2026-05-01 10:35 | 59.02032 | 53.67285 | 34062 ft | 468 kts | 330° |
| 2026-05-01 10:35 | 59.07786 | 53.61478 | 34069 ft | 467 kts | 330° |
| 2026-05-01 10:36 | 59.16417 | 53.52721 | 34065 ft | 467 kts | 330° |
| 2026-05-01 10:37 | 59.22129 | 53.46934 | 34068 ft | 466 kts | 331° |
| 2026-05-01 10:37 | 59.30736 | 53.38096 | 34063 ft | 465 kts | 330° |
| 2026-05-01 10:38 | 59.36470 | 53.32199 | 34066 ft | 465 kts | 329° |
| 2026-05-01 10:38 | 59.42164 | 53.26323 | 34067 ft | 464 kts | 329° |
| 2026-05-01 10:39 | 59.47830 | 53.20451 | 34068 ft | 463 kts | 329° |
| 2026-05-01 10:39 | 59.53316 | 53.13965 | 34084 ft | 458 kts | 319° |
| 2026-05-01 10:40 | 59.58440 | 53.06583 | 34075 ft | 458 kts | 322° |
| 2026-05-01 10:40 | 59.63632 | 52.99285 | 34073 ft | 458 kts | 322° |
| 2026-05-01 10:41 | 59.68775 | 52.92056 | 34079 ft | 458 kts | 322° |
| 2026-05-01 10:42 | 59.76519 | 52.81119 | 34073 ft | 457 kts | 322° |
| 2026-05-01 10:42 | 59.81674 | 52.73805 | 34072 ft | 457 kts | 322° |
| 2026-05-01 10:43 | 59.86807 | 52.66493 | 34068 ft | 457 kts | 322° |
| 2026-05-01 10:43 | 59.91967 | 52.59114 | 34077 ft | 456 kts | 322° |
| 2026-05-01 10:44 | 59.97031 | 52.51844 | 34070 ft | 456 kts | 322° |
| 2026-05-01 10:44 | 60.02008 | 52.44670 | 34071 ft | 456 kts | 322° |
| 2026-05-01 10:45 | 60.07130 | 52.37261 | 34064 ft | 456 kts | 322° |
| 2026-05-01 10:45 | 60.12272 | 52.29917 | 34076 ft | 455 kts | 322° |
| 2026-05-01 10:46 | 60.17396 | 52.22563 | 34079 ft | 455 kts | 322° |
| 2026-05-01 10:46 | 60.22510 | 52.15203 | 34072 ft | 454 kts | 322° |
| 2026-05-01 10:47 | 60.27657 | 52.07765 | 34059 ft | 453 kts | 322° |
| 2026-05-01 10:47 | 60.32758 | 52.00367 | 34055 ft | 453 kts | 322° |
| 2026-05-01 10:48 | 60.37828 | 51.92984 | 34071 ft | 453 kts | 322° |
| 2026-05-01 10:48 | 60.42925 | 51.85533 | 34069 ft | 452 kts | 322° |
| 2026-05-01 10:49 | 60.47986 | 51.78104 | 34062 ft | 451 kts | 323° |
| 2026-05-01 10:49 | 60.53035 | 51.70666 | 34072 ft | 451 kts | 322° |
| 2026-05-01 10:50 | 60.58111 | 51.63175 | 34059 ft | 450 kts | 322° |
| 2026-05-01 10:50 | 60.63151 | 51.55670 | 34063 ft | 450 kts | 323° |
| 2026-05-01 10:51 | 60.68161 | 51.48198 | 34065 ft | 449 kts | 323° |
| 2026-05-01 10:51 | 60.73186 | 51.40677 | 34058 ft | 448 kts | 323° |
| 2026-05-01 10:52 | 60.78161 | 51.33201 | 34064 ft | 448 kts | 322° |
| 2026-05-01 10:52 | 60.83179 | 51.25670 | 34068 ft | 447 kts | 323° |
| 2026-05-01 10:53 | 60.88219 | 51.18270 | 34062 ft | 447 kts | 323° |
| 2026-05-01 10:53 | 60.93254 | 51.10831 | 34070 ft | 447 kts | 323° |
| 2026-05-01 10:54 | 60.98271 | 51.03388 | 34071 ft | 446 kts | 323° |
| 2026-05-01 10:54 | 61.03258 | 50.95958 | 34083 ft | 446 kts | 323° |
| 2026-05-01 10:55 | 61.08263 | 50.88473 | 34088 ft | 445 kts | 323° |
| 2026-05-01 10:55 | 61.13292 | 50.80922 | 34063 ft | 445 kts | 323° |
| 2026-05-01 10:56 | 61.18292 | 50.73383 | 34078 ft | 444 kts | 323° |
| 2026-05-01 10:56 | 61.23272 | 50.65844 | 34079 ft | 444 kts | 324° |
| 2026-05-01 10:57 | 61.28282 | 50.58230 | 34082 ft | 443 kts | 323° |
| 2026-05-01 10:57 | 61.33239 | 50.50666 | 34075 ft | 443 kts | 324° |
| 2026-05-01 10:58 | 61.38160 | 50.43126 | 34068 ft | 442 kts | 323° |
| 2026-05-01 10:58 | 61.43124 | 50.35555 | 34083 ft | 442 kts | 324° |
| 2026-05-01 10:59 | 61.48041 | 50.27935 | 34092 ft | 441 kts | 323° |
| 2026-05-01 10:59 | 61.52993 | 50.20256 | 34078 ft | 442 kts | 323° |
| 2026-05-01 11:00 | 61.57950 | 50.12552 | 34074 ft | 441 kts | 323° |
| 2026-05-01 11:00 | 61.62844 | 50.04921 | 34079 ft | 441 kts | 323° |
| 2026-05-01 11:01 | 61.67759 | 49.97223 | 34073 ft | 440 kts | 323° |
| 2026-05-01 11:01 | 61.72650 | 49.89531 | 34074 ft | 440 kts | 323° |
| 2026-05-01 11:02 | 61.77514 | 49.81850 | 34077 ft | 439 kts | 323° |
| 2026-05-01 11:02 | 61.82379 | 49.74139 | 34073 ft | 439 kts | 323° |
| 2026-05-01 11:02 | 61.84670 | 49.69865 | 34082 ft | 439 kts | 312° |
| 2026-05-01 11:03 | 61.86705 | 49.65076 | 34081 ft | 439 kts | 315° |
| 2026-05-01 11:03 | 61.90904 | 49.55791 | 34068 ft | 439 kts | 315° |
| 2026-05-01 11:04 | 61.95134 | 49.46514 | 34071 ft | 439 kts | 316° |
| 2026-05-01 11:04 | 61.99368 | 49.37311 | 34066 ft | 438 kts | 316° |
| 2026-05-01 11:05 | 62.03606 | 49.28029 | 34064 ft | 438 kts | 315° |
| 2026-05-01 11:05 | 62.07824 | 49.18765 | 34067 ft | 437 kts | 315° |
| 2026-05-01 11:06 | 62.12077 | 49.09504 | 34070 ft | 437 kts | 315° |
| 2026-05-01 11:06 | 62.16277 | 49.00161 | 34096 ft | 437 kts | 315° |
| 2026-05-01 11:07 | 62.22600 | 48.86118 | 34077 ft | 437 kts | 315° |
| 2026-05-01 11:07 | 62.26812 | 48.76729 | 34060 ft | 437 kts | 315° |
| 2026-05-01 11:08 | 62.31018 | 48.67395 | 34074 ft | 437 kts | 318° |
| 2026-05-01 11:09 | 62.37288 | 48.53283 | 34077 ft | 437 kts | 315° |
| 2026-05-01 11:09 | 62.41470 | 48.43847 | 34069 ft | 437 kts | 315° |
| 2026-05-01 11:10 | 62.47739 | 48.29644 | 34055 ft | 437 kts | 315° |
| 2026-05-01 11:10 | 62.51905 | 48.20155 | 34052 ft | 437 kts | 315° |
| 2026-05-01 11:11 | 62.56101 | 48.10556 | 34068 ft | 437 kts | 315° |
| 2026-05-01 11:11 | 62.60254 | 48.01016 | 34071 ft | 437 kts | 315° |
| 2026-05-01 11:12 | 62.64421 | 47.91399 | 34065 ft | 437 kts | 315° |
| 2026-05-01 11:12 | 62.68557 | 47.81811 | 34062 ft | 436 kts | 315° |
| 2026-05-01 11:13 | 62.72673 | 47.72230 | 34061 ft | 436 kts | 315° |
| 2026-05-01 11:13 | 62.76801 | 47.62580 | 34074 ft | 435 kts | 315° |
| 2026-05-01 11:14 | 62.80917 | 47.52914 | 34047 ft | 435 kts | 315° |
| 2026-05-01 11:14 | 62.85019 | 47.43241 | 34052 ft | 435 kts | 315° |
| 2026-05-01 11:15 | 62.89093 | 47.33586 | 34069 ft | 434 kts | 315° |
| 2026-05-01 11:15 | 62.93188 | 47.23842 | 34042 ft | 434 kts | 315° |
| 2026-05-01 11:16 | 62.97250 | 47.14135 | 34053 ft | 433 kts | 315° |
| 2026-05-01 11:16 | 63.01323 | 47.04393 | 34038 ft | 433 kts | 316° |
| 2026-05-01 11:17 | 63.05371 | 46.94632 | 34077 ft | 433 kts | 315° |
| 2026-05-01 11:17 | 63.09424 | 46.84826 | 34034 ft | 432 kts | 316° |
| 2026-05-01 11:18 | 63.13446 | 46.75082 | 34065 ft | 431 kts | 316° |
| 2026-05-01 11:18 | 63.17469 | 46.65263 | 34044 ft | 432 kts | 316° |
| 2026-05-01 11:19 | 63.21475 | 46.55456 | 34035 ft | 432 kts | 316° |
| 2026-05-01 11:19 | 63.25504 | 46.45551 | 34049 ft | 432 kts | 316° |
| 2026-05-01 11:20 | 63.29496 | 46.35694 | 34027 ft | 430 kts | 316° |
| 2026-05-01 11:20 | 63.33466 | 46.25847 | 34029 ft | 430 kts | 316° |
| 2026-05-01 11:21 | 63.37461 | 46.15893 | 34025 ft | 430 kts | 315° |
| 2026-05-01 11:21 | 63.41416 | 46.05992 | 34013 ft | 429 kts | 316° |
| 2026-05-01 11:22 | 63.45392 | 45.95998 | 34039 ft | 429 kts | 316° |
| 2026-05-01 11:22 | 63.49343 | 45.86022 | 34022 ft | 427 kts | 316° |
| 2026-05-01 11:23 | 63.53244 | 45.76121 | 34032 ft | 427 kts | 316° |
| 2026-05-01 11:23 | 63.57172 | 45.66115 | 34034 ft | 426 kts | 316° |
| 2026-05-01 11:24 | 63.61089 | 45.56085 | 34025 ft | 426 kts | 316° |
| 2026-05-01 11:25 | 63.66904 | 45.41117 | 34032 ft | 425 kts | 317° |
| 2026-05-01 11:25 | 63.70691 | 45.30940 | 34003 ft | 431 kts | 306° |
| 2026-05-01 11:25 | 63.71969 | 45.24719 | 34040 ft | 435 kts | 301° |
| 2026-05-01 11:26 | 63.76036 | 45.06507 | 34059 ft | 434 kts | 303° |
| 2026-05-01 11:27 | 63.78803 | 44.94323 | 34036 ft | 434 kts | 304° |
| 2026-05-01 11:27 | 63.81547 | 44.82208 | 34013 ft | 434 kts | 303° |
| 2026-05-01 11:28 | 63.84292 | 44.70020 | 34008 ft | 434 kts | 304° |
| 2026-05-01 11:28 | 63.86279 | 44.61158 | 34039 ft | 435 kts | 304° |
| 2026-05-01 11:29 | 63.89021 | 44.48859 | 33395 ft | 443 kts | 303° |
| 2026-05-01 11:29 | 63.90376 | 44.42718 | 33033 ft | 426 kts | 304° |
| 2026-05-01 11:29 | 63.92913 | 44.31087 | 32050 ft | 401 kts | 303° |
| 2026-05-01 11:30 | 63.94107 | 44.25497 | 31508 ft | 390 kts | 304° |
| 2026-05-01 11:30 | 63.95252 | 44.20065 | 30968 ft | 380 kts | 304° |
| 2026-05-01 11:30 | 63.96366 | 44.14710 | 30406 ft | 370 kts | 304° |
| 2026-05-01 11:30 | 63.97449 | 44.09431 | 29825 ft | 362 kts | 303° |
| 2026-05-01 11:31 | 63.98482 | 44.04343 | 29255 ft | 356 kts | 303° |
| 2026-05-01 11:31 | 63.99536 | 43.99360 | 28669 ft | 344 kts | 309° |
| 2026-05-01 11:31 | 64.00803 | 43.94853 | 28086 ft | 340 kts | 308° |
| 2026-05-01 11:31 | 64.01914 | 43.90064 | 27497 ft | 340 kts | 306° |
| 2026-05-01 11:32 | 64.02989 | 43.85300 | 26918 ft | 339 kts | 305° |
| 2026-05-01 11:32 | 64.04021 | 43.80545 | 26344 ft | 336 kts | 305° |
| 2026-05-01 11:32 | 64.05056 | 43.75755 | 25766 ft | 334 kts | 305° |
| 2026-05-01 11:32 | 64.06071 | 43.71031 | 25195 ft | 332 kts | 305° |
| 2026-05-01 11:33 | 64.07074 | 43.66349 | 24632 ft | 330 kts | 305° |
| 2026-05-01 11:33 | 64.08070 | 43.61688 | 24066 ft | 328 kts | 305° |
| 2026-05-01 11:33 | 64.09061 | 43.57042 | 23494 ft | 326 kts | 305° |
| 2026-05-01 11:33 | 64.10049 | 43.52404 | 22928 ft | 324 kts | 304° |
| 2026-05-01 11:34 | 64.11027 | 43.47801 | 22390 ft | 322 kts | 304° |
| 2026-05-01 11:34 | 64.11996 | 43.43223 | 21852 ft | 319 kts | 304° |
| 2026-05-01 11:34 | 64.12959 | 43.38664 | 21324 ft | 317 kts | 304° |
| 2026-05-01 11:34 | 64.13910 | 43.34165 | 20792 ft | 315 kts | 303° |
| 2026-05-01 11:35 | 64.14821 | 43.29833 | 20278 ft | 313 kts | 303° |
| 2026-05-01 11:35 | 64.15745 | 43.25389 | 19760 ft | 311 kts | 302° |
| 2026-05-01 11:35 | 64.16650 | 43.21032 | 19247 ft | 308 kts | 302° |
| 2026-05-01 11:35 | 64.17560 | 43.16639 | 18727 ft | 306 kts | 302° |
| 2026-05-01 11:36 | 64.18463 | 43.12273 | 18210 ft | 303 kts | 302° |
| 2026-05-01 11:36 | 64.19366 | 43.07897 | 17687 ft | 301 kts | 302° |
| 2026-05-01 11:36 | 64.20252 | 43.03608 | 17175 ft | 298 kts | 301° |
| 2026-05-01 11:36 | 64.21134 | 42.99316 | 16662 ft | 296 kts | 301° |
| 2026-05-01 11:37 | 64.22002 | 42.95090 | 16159 ft | 293 kts | 301° |
| 2026-05-01 11:37 | 64.22866 | 42.90870 | 15641 ft | 290 kts | 301° |
| 2026-05-01 11:37 | 64.23716 | 42.86715 | 15141 ft | 287 kts | 301° |
| 2026-05-01 11:37 | 64.24550 | 42.82629 | 14641 ft | 285 kts | 300° |
| 2026-05-01 11:38 | 64.25389 | 42.78507 | 14144 ft | 282 kts | 300° |
| 2026-05-01 11:38 | 64.26212 | 42.74458 | 13645 ft | 279 kts | 300° |
| 2026-05-01 11:38 | 64.27024 | 42.70456 | 13146 ft | 276 kts | 300° |
| 2026-05-01 11:38 | 64.27831 | 42.66473 | 12653 ft | 274 kts | 300° |
| 2026-05-01 11:39 | 64.28670 | 42.62586 | 12159 ft | 270 kts | 303° |
| 2026-05-01 11:39 | 64.29574 | 42.58860 | 11670 ft | 267 kts | 302° |
| 2026-05-01 11:39 | 64.30435 | 42.55151 | 11179 ft | 264 kts | 302° |
| 2026-05-01 11:39 | 64.31306 | 42.51420 | 10677 ft | 262 kts | 302° |
| 2026-05-01 11:40 | 64.32158 | 42.47731 | 10192 ft | 260 kts | 302° |
| 2026-05-01 11:40 | 64.32996 | 42.44094 | 9700 ft | 257 kts | 301° |
| 2026-05-01 11:40 | 64.33828 | 42.40480 | 9207 ft | 254 kts | 301° |
| 2026-05-01 11:40 | 64.34649 | 42.36904 | 8714 ft | 252 kts | 301° |
| 2026-05-01 11:41 | 64.35458 | 42.33373 | 8240 ft | 249 kts | 300° |
| 2026-05-01 11:41 | 64.36258 | 42.29881 | 7755 ft | 246 kts | 299° |
| 2026-05-01 11:41 | 64.37049 | 42.26422 | 7256 ft | 243 kts | 299° |
| 2026-05-01 11:41 | 64.37832 | 42.22992 | 6725 ft | 242 kts | 298° |
| 2026-05-01 11:42 | 64.38610 | 42.19572 | 6196 ft | 241 kts | 298° |
| 2026-05-01 11:42 | 64.39363 | 42.16259 | 5689 ft | 240 kts | 298° |
| 2026-05-01 11:42 | 64.40147 | 42.12800 | 5167 ft | 239 kts | 297° |
| 2026-05-01 11:42 | 64.40906 | 42.09453 | 4661 ft | 239 kts | 297° |
| 2026-05-01 11:43 | 64.41679 | 42.06034 | 4143 ft | 238 kts | 296° |
| 2026-05-01 11:43 | 64.42430 | 42.02701 | 3639 ft | 237 kts | 296° |
| 2026-05-01 11:43 | 64.43192 | 41.99323 | 3253 ft | 232 kts | 296° |
| 2026-05-01 11:44 | 64.44697 | 41.92628 | 2968 ft | 234 kts | 295° |
| 2026-05-01 11:44 | 64.45450 | 41.89282 | 2830 ft | 233 kts | 296° |
| 2026-05-01 11:44 | 64.46195 | 41.85949 | 2681 ft | 233 kts | 295° |
| 2026-05-01 11:44 | 64.46945 | 41.82619 | 2539 ft | 232 kts | 295° |
| 2026-05-01 11:45 | 64.47682 | 41.79276 | 2393 ft | 232 kts | 295° |
| 2026-05-01 11:45 | 64.48421 | 41.75995 | 2250 ft | 232 kts | 296° |
| 2026-05-01 11:45 | 64.49148 | 41.72653 | 2101 ft | 231 kts | 296° |
| 2026-05-01 11:45 | 64.49903 | 41.69311 | 1960 ft | 232 kts | 294° |
| 2026-05-01 11:46 | 64.50629 | 41.66004 | 1935 ft | 232 kts | 297° |
| 2026-05-01 11:46 | 64.51367 | 41.62696 | 1930 ft | 232 kts | 294° |
| 2026-05-01 11:46 | 64.52103 | 41.59349 | 1933 ft | 232 kts | 295° |
| 2026-05-01 11:46 | 64.52831 | 41.56010 | 1937 ft | 232 kts | 296° |
| 2026-05-01 11:47 | 64.53577 | 41.52642 | 1938 ft | 232 kts | 295° |
| 2026-05-01 11:47 | 64.54307 | 41.49324 | 1947 ft | 229 kts | 296° |
| 2026-05-01 11:47 | 64.55014 | 41.46087 | 1930 ft | 216 kts | 294° |
| 2026-05-01 11:47 | 64.55678 | 41.43071 | 1923 ft | 208 kts | 295° |
| 2026-05-01 11:48 | 64.56325 | 41.40078 | 1934 ft | 208 kts | 290° |
| 2026-05-01 11:48 | 64.56506 | 41.36803 | 1953 ft | 206 kts | 266° |
| 2026-05-01 11:48 | 64.56599 | 41.33512 | 1968 ft | 206 kts | 277° |
| 2026-05-01 11:48 | 64.56804 | 41.30208 | 1927 ft | 203 kts | 275° |
| 2026-05-01 11:49 | 64.56993 | 41.26966 | 1958 ft | 202 kts | 275° |
| 2026-05-01 11:49 | 64.57176 | 41.23748 | 1973 ft | 196 kts | 275° |
| 2026-05-01 11:49 | 64.57359 | 41.20653 | 1958 ft | 195 kts | 276° |
| 2026-05-01 11:49 | 64.57543 | 41.17515 | 1956 ft | 195 kts | 275° |
| 2026-05-01 11:50 | 64.57720 | 41.14486 | 1959 ft | 182 kts | 275° |
| 2026-05-01 11:50 | 64.57887 | 41.11663 | 1954 ft | 173 kts | 275° |
| 2026-05-01 11:50 | 64.58051 | 41.08865 | 1958 ft | 169 kts | 275° |
| 2026-05-01 11:50 | 64.58205 | 41.06304 | 1954 ft | 154 kts | 275° |
| 2026-05-01 11:51 | 64.58351 | 41.03867 | 1960 ft | 152 kts | 275° |
| 2026-05-01 11:51 | 64.58497 | 41.01420 | 1963 ft | 154 kts | 275° |
| 2026-05-01 11:51 | 64.58644 | 40.98947 | 1962 ft | 153 kts | 275° |
| 2026-05-01 11:51 | 64.58693 | 40.96470 | 1957 ft | 154 kts | 268° |
| 2026-05-01 11:52 | 64.58776 | 40.93988 | 1759 ft | 155 kts | 275° |
| 2026-05-01 11:52 | 64.58899 | 40.91473 | 1554 ft | 154 kts | 273° |
| 2026-05-01 11:52 | 64.59029 | 40.89006 | 1348 ft | 154 kts | 276° |
| 2026-05-01 11:52 | 64.59171 | 40.86527 | 1141 ft | 156 kts | 275° |
| 2026-05-01 11:53 | 64.59304 | 40.84022 | 924 ft | 153 kts | 276° |
| 2026-05-01 11:53 | 64.59453 | 40.81511 | 715 ft | 157 kts | 275° |
| 2026-05-01 11:53 | 64.59616 | 40.78991 | 529 ft | 158 kts | 282° |
| 2026-05-01 11:53 | 64.59814 | 40.76424 | 285 ft | 164 kts | 275° |
| 2026-05-01 11:54 | 64.59931 | 40.73729 | 62 ft | 168 kts | 274° |
| 2026-05-01 11:54 | 64.60046 | 40.71205 | 42 ft | 130 kts | 277° |
| 2026-05-01 11:54 | 64.60116 | 40.69805 | 42 ft | 44 kts | 277° |
| 2026-05-01 11:54 | 64.60129 | 40.69503 | 41 ft | 10 kts | 276° |
| 2026-05-01 11:55 | 64.60137 | 40.69308 | 40 ft | 13 kts | 275° |
| 2026-05-01 11:55 | 64.60140 | 40.69107 | 39 ft | 7 kts | 248° |
| 2026-05-01 11:55 | 64.60096 | 40.69054 | 39 ft | 8 kts | 186° |
| 2026-05-01 11:55 | 64.60030 | 40.69038 | 39 ft | 10 kts | 186° |
| 2026-05-01 11:56 | 64.59952 | 40.69038 | 39 ft | 11 kts | 150° |
| 2026-05-01 11:56 | 64.59933 | 40.69212 | 40 ft | 11 kts | 98° |
| 2026-05-01 11:56 | 64.59923 | 40.69406 | 41 ft | 12 kts | 97° |
| 2026-05-01 11:56 | 64.59911 | 40.69614 | 42 ft | 13 kts | 98° |
| 2026-05-01 11:57 | 64.59901 | 40.69826 | 42 ft | 10 kts | 95° |
| 2026-05-01 11:57 | 64.59894 | 40.70009 | 42 ft | 12 kts | 96° |
| 2026-05-01 11:57 | 64.59884 | 40.70228 | 42 ft | 14 kts | 97° |
| 2026-05-01 11:57 | 64.59870 | 40.70486 | 42 ft | 17 kts | 98° |
| 2026-05-01 11:58 | 64.59857 | 40.70780 | 42 ft | 19 kts | 96° |
| 2026-05-01 11:58 | 64.59843 | 40.71056 | 42 ft | 11 kts | 98° |
| 2026-05-01 11:58 | 64.59786 | 40.71147 | 42 ft | 1 kts | 188° |